sensor_id;sensor_type;location;lat;lon;timestamp;pressure;altitude;pressure_sealevel;temperature;humidity
41690;BME280;27372;42.658;23.256;2023-04-01T00:01:11;92934.66;;;12.45;49.16
41690;BME280;27372;42.658;23.256;2023-04-01T00:03:39;92928.63;;;12.39;50.12
41690;BME280;27372;42.658;23.256;2023-04-01T00:06:04;92930.19;;;12.46;48.19
41690;BME280;27372;42.658;23.256;2023-04-01T00:08:30;92934.06;;;12.64;48.53
41690;BME280;27372;42.658;23.256;2023-04-01T00:10:56;92926.16;;;12.69;48.21
41690;BME280;27372;42.658;23.256;2023-04-01T00:13:23;92930.88;;;12.72;47.70
41690;BME280;27372;42.658;23.256;2023-04-01T00:15:48;92925.34;;;12.73;49.94
41690;BME280;27372;42.658;23.256;2023-04-01T00:18:14;92925.19;;;12.44;55.10
41690;BME280;27372;42.658;23.256;2023-04-01T00:20:43;92935.72;;;12.49;54.73
41690;BME280;27372;42.658;23.256;2023-04-01T00:23:09;92932.56;;;12.42;54.47
41690;BME280;27372;42.658;23.256;2023-04-01T00:25:35;92934.16;;;12.33;56.03
41690;BME280;27372;42.658;23.256;2023-04-01T00:28:00;92940.50;;;12.26;56.49
41690;BME280;27372;42.658;23.256;2023-04-01T00:30:25;92931.28;;;12.24;57.86
41690;BME280;27372;42.658;23.256;2023-04-01T00:32:52;92926.31;;;11.81;59.45
41690;BME280;27372;42.658;23.256;2023-04-01T00:35:18;92911.31;;;11.87;60.85
41690;BME280;27372;42.658;23.256;2023-04-01T00:37:43;92915.25;;;11.63;63.18
41690;BME280;27372;42.658;23.256;2023-04-01T00:40:23;92921.03;;;11.29;65.17
41690;BME280;27372;42.658;23.256;2023-04-01T00:42:49;92917.03;;;11.01;67.21
41690;BME280;27372;42.658;23.256;2023-04-01T00:45:34;92906.31;;;11.23;65.59
41690;BME280;27372;42.658;23.256;2023-04-01T00:48:20;92921.25;;;11.07;67.00
41690;BME280;27372;42.658;23.256;2023-04-01T00:51:26;92910.47;;;11.03;67.97
41690;BME280;27372;42.658;23.256;2023-04-01T00:53:55;92916.25;;;11.11;66.45
41690;BME280;27372;42.658;23.256;2023-04-01T00:56:37;92899.38;;;10.76;66.72
41690;BME280;27372;42.658;23.256;2023-04-01T00:59:16;92881.13;;;10.43;67.24
41690;BME280;27372;42.658;23.256;2023-04-01T01:01:44;92883.16;;;10.31;68.08
41690;BME280;27372;42.658;23.256;2023-04-01T01:04:30;92887.94;;;9.91;69.79
41690;BME280;27372;42.658;23.256;2023-04-01T01:23:46;92874.69;;;9.65;71.31
41690;BME280;27372;42.658;23.256;2023-04-01T01:35:55;92852.75;;;9.82;66.48
41690;BME280;27372;42.658;23.256;2023-04-01T01:38:32;92828.38;;;9.86;65.95
41690;BME280;27372;42.658;23.256;2023-04-01T01:41:29;92835.97;;;9.88;64.79
41690;BME280;27372;42.658;23.256;2023-04-01T01:43:59;92849.72;;;9.57;67.44
41690;BME280;27372;42.658;23.256;2023-04-01T01:46:36;92837.59;;;9.94;62.92
41690;BME280;27372;42.658;23.256;2023-04-01T01:49:16;92833.53;;;10.29;60.70
41690;BME280;27372;42.658;23.256;2023-04-01T01:51:43;92817.63;;;10.46;56.53
41690;BME280;27372;42.658;23.256;2023-04-01T01:54:16;92809.25;;;10.65;58.50
41690;BME280;27372;42.658;23.256;2023-04-01T01:56:49;92832.13;;;10.69;61.77
41690;BME280;27372;42.658;23.256;2023-04-01T01:59:23;92830.03;;;10.66;62.63
41690;BME280;27372;42.658;23.256;2023-04-01T02:01:56;92825.06;;;10.80;63.40
41690;BME280;27372;42.658;23.256;2023-04-01T02:04:28;92811.13;;;10.64;62.22
41690;BME280;27372;42.658;23.256;2023-04-01T02:07:02;92805.06;;;10.74;62.03
41690;BME280;27372;42.658;23.256;2023-04-01T02:09:39;92814.53;;;10.65;61.65
41690;BME280;27372;42.658;23.256;2023-04-01T02:12:13;92809.53;;;10.79;62.01
41690;BME280;27372;42.658;23.256;2023-04-01T02:17:24;92801.38;;;10.49;62.45
41690;BME280;27372;42.658;23.256;2023-04-01T02:19:54;92809.00;;;10.56;61.97
41690;BME280;27372;42.658;23.256;2023-04-01T02:22:53;92812.44;;;10.72;62.72
41690;BME280;27372;42.658;23.256;2023-04-01T02:25:38;92821.63;;;10.80;61.99
41690;BME280;27372;42.658;23.256;2023-04-01T02:28:07;92820.59;;;10.91;60.83
41690;BME280;27372;42.658;23.256;2023-04-01T02:30:36;92818.00;;;10.86;61.13
41690;BME280;27372;42.658;23.256;2023-04-01T02:33:09;92815.31;;;10.70;61.49
41690;BME280;27372;42.658;23.256;2023-04-01T02:35:35;92821.16;;;10.98;60.43
41690;BME280;27372;42.658;23.256;2023-04-01T02:38:04;92827.72;;;11.01;60.37
41690;BME280;27372;42.658;23.256;2023-04-01T02:40:40;92802.22;;;10.76;60.63
41690;BME280;27372;42.658;23.256;2023-04-01T02:43:20;92819.97;;;10.43;60.86
41690;BME280;27372;42.658;23.256;2023-04-01T02:45:55;92821.28;;;10.40;61.72
41690;BME280;27372;42.658;23.256;2023-04-01T02:48:42;92814.28;;;10.77;60.49
41690;BME280;27372;42.658;23.256;2023-04-01T02:51:10;92833.16;;;10.58;60.52
41690;BME280;27372;42.658;23.256;2023-04-01T02:53:36;92833.09;;;10.43;61.20
41690;BME280;27372;42.658;23.256;2023-04-01T02:56:08;92837.09;;;10.61;60.69
41690;BME280;27372;42.658;23.256;2023-04-01T02:58:34;92842.66;;;10.80;59.80
41690;BME280;27372;42.658;23.256;2023-04-01T03:00:59;92834.28;;;10.88;59.02
41690;BME280;27372;42.658;23.256;2023-04-01T03:03:25;92841.38;;;10.98;58.07
41690;BME280;27372;42.658;23.256;2023-04-01T03:05:50;92854.78;;;11.12;58.57
41690;BME280;27372;42.658;23.256;2023-04-01T03:08:16;92845.31;;;10.95;58.58
41690;BME280;27372;42.658;23.256;2023-04-01T03:10:41;92833.78;;;11.17;58.07
41690;BME280;27372;42.658;23.256;2023-04-01T03:13:07;92833.50;;;11.13;57.82
41690;BME280;27372;42.658;23.256;2023-04-01T03:15:32;92850.03;;;10.93;58.44
41690;BME280;27372;42.658;23.256;2023-04-01T03:17:58;92850.81;;;10.88;61.19
41690;BME280;27372;42.658;23.256;2023-04-01T03:20:23;92854.19;;;10.74;60.68
41690;BME280;27372;42.658;23.256;2023-04-01T03:22:48;92857.94;;;11.03;55.26
41690;BME280;27372;42.658;23.256;2023-04-01T03:25:14;92840.31;;;10.88;59.12
41690;BME280;27372;42.658;23.256;2023-04-01T03:27:39;92843.22;;;10.97;58.33
41690;BME280;27372;42.658;23.256;2023-04-01T03:30:06;92854.53;;;11.24;57.46
41690;BME280;27372;42.658;23.256;2023-04-01T03:32:32;92845.59;;;11.09;58.45
41690;BME280;27372;42.658;23.256;2023-04-01T03:34:57;92829.81;;;11.30;55.07
41690;BME280;27372;42.658;23.256;2023-04-01T03:37:23;92836.91;;;11.40;56.39
41690;BME280;27372;42.658;23.256;2023-04-01T03:39:49;92823.50;;;11.26;61.17
41690;BME280;27372;42.658;23.256;2023-04-01T03:42:38;92806.72;;;11.32;62.18
41690;BME280;27372;42.658;23.256;2023-04-01T03:45:09;92792.22;;;11.29;61.20
41690;BME280;27372;42.658;23.256;2023-04-01T03:47:39;92773.31;;;11.38;59.15
41690;BME280;27372;42.658;23.256;2023-04-01T03:50:08;92775.38;;;11.51;55.81
41690;BME280;27372;42.658;23.256;2023-04-01T03:52:40;92756.44;;;11.64;57.77
41690;BME280;27372;42.658;23.256;2023-04-01T03:55:32;92763.25;;;11.65;60.75
41690;BME280;27372;42.658;23.256;2023-04-01T03:57:57;92756.25;;;11.04;64.29
41690;BME280;27372;42.658;23.256;2023-04-01T04:00:24;92736.28;;;10.77;67.13
41690;BME280;27372;42.658;23.256;2023-04-01T04:03:00;92730.50;;;10.65;67.40
41690;BME280;27372;42.658;23.256;2023-04-01T04:05:49;92727.81;;;10.29;69.23
41690;BME280;27372;42.658;23.256;2023-04-01T04:08:17;92713.69;;;10.40;66.54
41690;BME280;27372;42.658;23.256;2023-04-01T04:11:10;92713.44;;;10.57;67.42
41690;BME280;27372;42.658;23.256;2023-04-01T04:13:37;92726.56;;;10.62;65.05
41690;BME280;27372;42.658;23.256;2023-04-01T04:16:03;92724.47;;;10.75;64.12
41690;BME280;27372;42.658;23.256;2023-04-01T04:18:29;92729.47;;;10.76;61.59
41690;BME280;27372;42.658;23.256;2023-04-01T04:20:55;92728.41;;;10.67;62.42
41690;BME280;27372;42.658;23.256;2023-04-01T04:23:21;92707.13;;;10.89;62.55
41690;BME280;27372;42.658;23.256;2023-04-01T04:26:09;92715.78;;;11.10;62.92
41690;BME280;27372;42.658;23.256;2023-04-01T04:28:41;92718.69;;;10.52;69.03
41690;BME280;27372;42.658;23.256;2023-04-01T04:31:28;92709.22;;;10.61;68.24
41690;BME280;27372;42.658;23.256;2023-04-01T04:33:56;92680.34;;;10.40;63.25
41690;BME280;27372;42.658;23.256;2023-04-01T04:36:22;92712.13;;;10.49;68.31
41690;BME280;27372;42.658;23.256;2023-04-01T04:38:48;92711.31;;;10.44;67.08
41690;BME280;27372;42.658;23.256;2023-04-01T04:41:18;92701.88;;;10.63;67.57
41690;BME280;27372;42.658;23.256;2023-04-01T04:43:59;92686.66;;;10.60;68.83
41690;BME280;27372;42.658;23.256;2023-04-01T04:46:25;92701.63;;;10.75;68.25
41690;BME280;27372;42.658;23.256;2023-04-01T04:48:51;92694.00;;;10.68;69.97
41690;BME280;27372;42.658;23.256;2023-04-01T04:51:17;92691.38;;;10.94;69.07
41690;BME280;27372;42.658;23.256;2023-04-01T04:53:44;92684.28;;;10.74;68.67
41690;BME280;27372;42.658;23.256;2023-04-01T04:56:09;92671.66;;;10.86;68.60
41690;BME280;27372;42.658;23.256;2023-04-01T04:58:36;92669.31;;;10.90;68.47
41690;BME280;27372;42.658;23.256;2023-04-01T05:01:15;92672.19;;;10.37;69.21
41690;BME280;27372;42.658;23.256;2023-04-01T05:03:42;92669.59;;;10.52;70.04
41690;BME280;27372;42.658;23.256;2023-04-01T05:06:12;92668.28;;;10.65;69.00
41690;BME280;27372;42.658;23.256;2023-04-01T05:08:39;92674.56;;;10.69;68.48
41690;BME280;27372;42.658;23.256;2023-04-01T05:11:09;92666.94;;;10.99;67.76
41690;BME280;27372;42.658;23.256;2023-04-01T05:13:37;92664.59;;;10.46;68.35
41690;BME280;27372;42.658;23.256;2023-04-01T05:16:03;92658.03;;;10.59;68.32
41690;BME280;27372;42.658;23.256;2023-04-01T05:18:29;92661.81;;;9.78;70.73
41690;BME280;27372;42.658;23.256;2023-04-01T05:20:54;92638.28;;;9.94;68.97
41690;BME280;27372;42.658;23.256;2023-04-01T05:23:21;92634.09;;;9.93;68.77
41690;BME280;27372;42.658;23.256;2023-04-01T05:25:50;92627.81;;;10.15;67.78
41690;BME280;27372;42.658;23.256;2023-04-01T05:28:18;92626.28;;;10.50;66.65
41690;BME280;27372;42.658;23.256;2023-04-01T05:30:47;92635.44;;;10.78;65.69
41690;BME280;27372;42.658;23.256;2023-04-01T05:33:15;92633.59;;;10.84;66.75
41690;BME280;27372;42.658;23.256;2023-04-01T05:35:43;92637.81;;;10.85;70.18
41690;BME280;27372;42.658;23.256;2023-04-01T05:38:15;92633.59;;;10.68;71.58
41690;BME280;27372;42.658;23.256;2023-04-01T05:41:14;92653.56;;;10.80;70.75
41690;BME280;27372;42.658;23.256;2023-04-01T05:43:43;92617.31;;;10.87;68.98
41690;BME280;27372;42.658;23.256;2023-04-01T05:46:08;92614.06;;;11.21;67.57
41690;BME280;27372;42.658;23.256;2023-04-01T05:48:34;92628.00;;;11.22;67.60
41690;BME280;27372;42.658;23.256;2023-04-01T05:51:00;92619.84;;;11.23;66.80
41690;BME280;27372;42.658;23.256;2023-04-01T05:53:26;92631.47;;;10.96;66.68
41690;BME280;27372;42.658;23.256;2023-04-01T05:55:51;92617.25;;;11.18;65.49
41690;BME280;27372;42.658;23.256;2023-04-01T05:58:17;92617.91;;;11.55;64.81
41690;BME280;27372;42.658;23.256;2023-04-01T06:00:42;92606.25;;;11.66;63.94
41690;BME280;27372;42.658;23.256;2023-04-01T06:03:08;92620.06;;;11.92;61.87
41690;BME280;27372;42.658;23.256;2023-04-01T06:05:39;92623.22;;;12.00;61.50
41690;BME280;27372;42.658;23.256;2023-04-01T06:08:13;92626.78;;;12.19;57.75
41690;BME280;27372;42.658;23.256;2023-04-01T06:26:47;92637.56;;;12.57;57.64
41690;BME280;27372;42.658;23.256;2023-04-01T06:35:13;92607.59;;;13.07;56.31
41690;BME280;27372;42.658;23.256;2023-04-01T06:56:05;92582.84;;;13.03;55.11
41690;BME280;27372;42.658;23.256;2023-04-01T06:58:49;92573.34;;;12.78;53.63
41690;BME280;27372;42.658;23.256;2023-04-01T07:01:37;92567.69;;;12.65;53.86
41690;BME280;27372;42.658;23.256;2023-04-01T07:04:10;92581.00;;;12.79;53.35
41690;BME280;27372;42.658;23.256;2023-04-01T07:06:45;92587.31;;;12.78;53.19
41690;BME280;27372;42.658;23.256;2023-04-01T07:09:17;92572.66;;;13.20;53.54
41690;BME280;27372;42.658;23.256;2023-04-01T07:11:46;92571.09;;;13.44;52.89
41690;BME280;27372;42.658;23.256;2023-04-01T07:16:50;92553.31;;;13.74;52.17
41690;BME280;27372;42.658;23.256;2023-04-01T07:19:26;92587.16;;;13.86;52.22
41690;BME280;27372;42.658;23.256;2023-04-01T07:22:09;92599.78;;;13.89;52.78
41690;BME280;27372;42.658;23.256;2023-04-01T07:24:44;92580.72;;;14.30;52.79
41690;BME280;27372;42.658;23.256;2023-04-01T07:27:12;92599.97;;;14.31;51.67
41690;BME280;27372;42.658;23.256;2023-04-01T07:29:38;92585.19;;;14.49;50.36
41690;BME280;27372;42.658;23.256;2023-04-01T07:32:24;92555.56;;;14.52;50.47
41690;BME280;27372;42.658;23.256;2023-04-01T07:35:13;92575.22;;;14.79;49.89
41690;BME280;27372;42.658;23.256;2023-04-01T07:38:09;92594.84;;;14.39;50.10
41690;BME280;27372;42.658;23.256;2023-04-01T07:43:44;92588.66;;;14.63;50.46
41690;BME280;27372;42.658;23.256;2023-04-01T07:52:01;92573.47;;;14.22;50.84
41690;BME280;27372;42.658;23.256;2023-04-01T07:54:39;92573.56;;;14.31;51.46
41690;BME280;27372;42.658;23.256;2023-04-01T07:57:20;92564.84;;;13.97;52.23
41690;BME280;27372;42.658;23.256;2023-04-01T08:06:00;92561.41;;;14.49;51.59
41690;BME280;27372;42.658;23.256;2023-04-01T08:30:19;92510.03;;;15.02;50.85
41690;BME280;27372;42.658;23.256;2023-04-01T08:39:17;92445.97;;;16.15;48.12
41690;BME280;27372;42.658;23.256;2023-04-01T09:21:04;92443.44;;;17.31;36.50
41690;BME280;27372;42.658;23.256;2023-04-01T09:29:02;92414.44;;;17.34;39.38
41690;BME280;27372;42.658;23.256;2023-04-01T09:38:29;92412.06;;;16.66;35.95
41690;BME280;27372;42.658;23.256;2023-04-01T09:41:05;92385.56;;;16.26;36.41
41690;BME280;27372;42.658;23.256;2023-04-01T09:44:01;92400.47;;;16.13;36.57
41690;BME280;27372;42.658;23.256;2023-04-01T09:47:05;92401.31;;;16.71;35.11
41690;BME280;27372;42.658;23.256;2023-04-01T09:58:43;92354.31;;;17.65;34.64
41690;BME280;27372;42.658;23.256;2023-04-01T10:04:23;92357.72;;;16.95;35.90
41690;BME280;27372;42.658;23.256;2023-04-01T10:10:30;92343.56;;;17.26;35.61
41690;BME280;27372;42.658;23.256;2023-04-01T11:34:13;92350.56;;;15.29;45.08
41690;BME280;27372;42.658;23.256;2023-04-01T11:44:33;92451.56;;;12.86;66.94
41690;BME280;27372;42.658;23.256;2023-04-01T11:47:22;92555.75;;;11.14;77.42
41690;BME280;27372;42.658;23.256;2023-04-01T11:53:19;92524.34;;;9.28;100.00
41690;BME280;27372;42.658;23.256;2023-04-01T11:55:56;92520.13;;;9.16;100.00
41690;BME280;27372;42.658;23.256;2023-04-01T12:01:51;92528.56;;;9.29;100.00
41690;BME280;27372;42.658;23.256;2023-04-01T12:04:54;92531.44;;;9.32;100.00
41690;BME280;27372;42.658;23.256;2023-04-01T12:10:05;92523.88;;;9.46;100.00
41690;BME280;27372;42.658;23.256;2023-04-01T12:20:57;92508.72;;;10.16;100.00
41690;BME280;27372;42.658;23.256;2023-04-01T12:30:10;92559.59;;;10.20;98.54
41690;BME280;27372;42.658;23.256;2023-04-01T12:47:21;92514.75;;;9.75;100.00
41690;BME280;27372;42.658;23.256;2023-04-01T12:55:44;92494.03;;;9.84;100.00
41690;BME280;27372;42.658;23.256;2023-04-01T13:04:26;92490.63;;;9.99;93.36
41690;BME280;27372;42.658;23.256;2023-04-01T13:10:09;92463.88;;;10.12;92.99
41690;BME280;27372;42.658;23.256;2023-04-01T13:12:59;92422.13;;;10.21;89.81
41690;BME280;27372;42.658;23.256;2023-04-01T13:15:52;92393.78;;;10.18;91.10
41690;BME280;27372;42.658;23.256;2023-04-01T13:27:12;92436.09;;;10.82;82.21
41690;BME280;27372;42.658;23.256;2023-04-01T13:30:11;92411.28;;;11.09;78.86
41690;BME280;27372;42.658;23.256;2023-04-01T13:38:55;92388.13;;;11.11;75.80
41690;BME280;27372;42.658;23.256;2023-04-01T13:41:43;92396.09;;;11.40;73.44
41690;BME280;27372;42.658;23.256;2023-04-01T13:44:26;92381.47;;;11.93;69.71
41690;BME280;27372;42.658;23.256;2023-04-01T13:58:01;92362.06;;;14.18;59.47
41690;BME280;27372;42.658;23.256;2023-04-01T14:00:52;92360.09;;;13.63;58.95
41690;BME280;27372;42.658;23.256;2023-04-01T14:03:37;92358.91;;;14.30;57.42
41690;BME280;27372;42.658;23.256;2023-04-01T14:06:17;92330.56;;;14.36;58.21
41690;BME280;27372;42.658;23.256;2023-04-01T14:11:19;92364.94;;;13.56;58.60
41690;BME280;27372;42.658;23.256;2023-04-01T14:13:59;92345.50;;;13.32;57.41
41690;BME280;27372;42.658;23.256;2023-04-01T14:16:55;92340.13;;;14.32;54.91
41690;BME280;27372;42.658;23.256;2023-04-01T14:27:49;92328.63;;;14.13;55.71
41690;BME280;27372;42.658;23.256;2023-04-01T14:33:06;92330.72;;;14.81;53.44
41690;BME280;27372;42.658;23.256;2023-04-01T14:42:23;92295.25;;;15.42;48.03
41690;BME280;27372;42.658;23.256;2023-04-01T14:45:23;92361.00;;;15.57;46.43
41690;BME280;27372;42.658;23.256;2023-04-01T14:51:02;92284.53;;;16.01;47.19
41690;BME280;27372;42.658;23.256;2023-04-01T14:53:31;92302.50;;;16.80;45.20
41690;BME280;27372;42.658;23.256;2023-04-01T14:56:00;92322.41;;;16.59;44.06
41690;BME280;27372;42.658;23.256;2023-04-01T14:58:44;92313.81;;;16.45;45.63
41690;BME280;27372;42.658;23.256;2023-04-01T15:13:03;92335.72;;;14.41;52.53
41690;BME280;27372;42.658;23.256;2023-04-01T15:15:41;92347.38;;;14.26;51.01
41690;BME280;27372;42.658;23.256;2023-04-01T15:45:40;92404.09;;;13.10;55.67
41690;BME280;27372;42.658;23.256;2023-04-01T15:48:26;92448.22;;;12.80;60.01
41690;BME280;27372;42.658;23.256;2023-04-01T15:51:07;92507.88;;;11.27;69.12
41690;BME280;27372;42.658;23.256;2023-04-01T15:53:56;92526.28;;;10.31;75.13
41690;BME280;27372;42.658;23.256;2023-04-01T16:02:34;92551.91;;;8.72;94.83
41690;BME280;27372;42.658;23.256;2023-04-01T16:13:12;92623.09;;;7.49;100.00
41690;BME280;27372;42.658;23.256;2023-04-01T16:18:54;92622.69;;;6.74;100.00
41690;BME280;27372;42.658;23.256;2023-04-01T16:27:14;92645.50;;;7.23;100.00
41690;BME280;27372;42.658;23.256;2023-04-01T16:30:22;92648.03;;;6.95;100.00
41690;BME280;27372;42.658;23.256;2023-04-01T16:44:48;92682.13;;;6.89;100.00
41690;BME280;27372;42.658;23.256;2023-04-01T16:47:31;92655.50;;;6.87;100.00
41690;BME280;27372;42.658;23.256;2023-04-01T16:56:03;92680.31;;;6.89;100.00
41690;BME280;27372;42.658;23.256;2023-04-01T17:02:02;92684.25;;;6.92;98.84
41690;BME280;27372;42.658;23.256;2023-04-01T17:04:57;92681.97;;;6.95;100.00
41690;BME280;27372;42.658;23.256;2023-04-01T17:16:07;92710.63;;;6.90;98.93
41690;BME280;27372;42.658;23.256;2023-04-01T17:30:20;92712.09;;;6.86;100.00
41690;BME280;27372;42.658;23.256;2023-04-01T17:40:53;92710.72;;;6.61;97.01
41690;BME280;27372;42.658;23.256;2023-04-01T17:46:28;92719.56;;;6.60;97.42
41690;BME280;27372;42.658;23.256;2023-04-01T17:49:11;92721.22;;;6.66;93.95
41690;BME280;27372;42.658;23.256;2023-04-01T17:54:47;92711.72;;;6.60;94.32
41690;BME280;27372;42.658;23.256;2023-04-01T18:06:14;92736.47;;;6.41;97.65
41690;BME280;27372;42.658;23.256;2023-04-01T18:11:24;92754.78;;;6.46;96.21
41690;BME280;27372;42.658;23.256;2023-04-01T18:14:20;92767.59;;;6.47;96.32
41690;BME280;27372;42.658;23.256;2023-04-01T18:22:43;92792.59;;;6.60;94.66
41690;BME280;27372;42.658;23.256;2023-04-01T18:25:21;92777.56;;;6.50;95.17
41690;BME280;27372;42.658;23.256;2023-04-01T18:27:57;92791.72;;;6.55;95.27
41690;BME280;27372;42.658;23.256;2023-04-01T18:30:31;92777.28;;;6.64;91.94
41690;BME280;27372;42.658;23.256;2023-04-01T18:35:50;92819.47;;;6.61;93.01
41690;BME280;27372;42.658;23.256;2023-04-01T18:38:27;92798.13;;;6.47;93.32
41690;BME280;27372;42.658;23.256;2023-04-01T18:44:06;92800.97;;;6.62;92.89
41690;BME280;27372;42.658;23.256;2023-04-01T18:46:48;92796.13;;;6.54;92.80
41690;BME280;27372;42.658;23.256;2023-04-01T18:49:25;92781.38;;;6.60;91.70
41690;BME280;27372;42.658;23.256;2023-04-01T18:52:03;92793.56;;;6.71;89.84
41690;BME280;27372;42.658;23.256;2023-04-01T18:54:42;92798.31;;;6.74;89.16
41690;BME280;27372;42.658;23.256;2023-04-01T18:57:15;92794.03;;;6.68;91.86
41690;BME280;27372;42.658;23.256;2023-04-01T18:59:57;92777.66;;;6.73;87.59
41690;BME280;27372;42.658;23.256;2023-04-01T19:02:32;92794.34;;;6.72;89.41
41690;BME280;27372;42.658;23.256;2023-04-01T19:05:18;92800.13;;;6.74;90.21
41690;BME280;27372;42.658;23.256;2023-04-01T19:13:29;92803.59;;;6.62;90.96
41690;BME280;27372;42.658;23.256;2023-04-01T19:21:57;92824.09;;;6.71;88.83
41690;BME280;27372;42.658;23.256;2023-04-01T19:38:52;92842.56;;;6.69;88.23
41690;BME280;27372;42.658;23.256;2023-04-01T19:41:48;92847.47;;;6.65;88.64
41690;BME280;27372;42.658;23.256;2023-04-01T19:49:52;92869.94;;;6.66;89.57
41690;BME280;27372;42.658;23.256;2023-04-01T19:52:40;92879.44;;;6.73;89.13
41690;BME280;27372;42.658;23.256;2023-04-01T19:58:15;92873.28;;;6.79;88.72
41690;BME280;27372;42.658;23.256;2023-04-01T20:01:10;92861.91;;;6.85;83.06
41690;BME280;27372;42.658;23.256;2023-04-01T20:03:47;92886.84;;;6.93;80.82
41690;BME280;27372;42.658;23.256;2023-04-01T20:06:26;92876.41;;;6.93;81.34
41690;BME280;27372;42.658;23.256;2023-04-01T20:25:57;92846.91;;;6.34;87.24
41690;BME280;27372;42.658;23.256;2023-04-01T20:37:47;92857.91;;;6.36;86.48
41690;BME280;27372;42.658;23.256;2023-04-01T20:46:28;92855.34;;;6.25;89.67
41690;BME280;27372;42.658;23.256;2023-04-01T21:03:55;92837.06;;;6.36;87.04
41690;BME280;27372;42.658;23.256;2023-04-01T21:06:49;92840.78;;;6.41;87.61
41690;BME280;27372;42.658;23.256;2023-04-01T21:15:48;92884.75;;;6.78;81.40
41690;BME280;27372;42.658;23.256;2023-04-01T21:18:42;92870.53;;;6.86;80.67
41690;BME280;27372;42.658;23.256;2023-04-01T21:21:38;92897.41;;;6.86;80.70
41690;BME280;27372;42.658;23.256;2023-04-01T21:38:31;92903.78;;;6.90;79.01
41690;BME280;27372;42.658;23.256;2023-04-01T22:07:19;92890.06;;;6.83;78.15
41690;BME280;27372;42.658;23.256;2023-04-01T22:13:22;92876.81;;;6.73;78.17
41690;BME280;27372;42.658;23.256;2023-04-01T22:16:06;92885.47;;;6.73;77.79
41690;BME280;27372;42.658;23.256;2023-04-01T22:19:33;92864.72;;;6.66;77.56
41690;BME280;27372;42.658;23.256;2023-04-01T22:21:47;92862.72;;;6.86;74.91
41690;BME280;27372;42.658;23.256;2023-04-01T22:27:28;92850.84;;;6.49;78.26
41690;BME280;27372;42.658;23.256;2023-04-01T22:32:43;92866.13;;;6.57;78.38
41690;BME280;27372;42.658;23.256;2023-04-01T22:35:40;92861.09;;;6.67;77.33
41690;BME280;27372;42.658;23.256;2023-04-01T22:41:21;92892.13;;;6.81;74.02
41690;BME280;27372;42.658;23.256;2023-04-01T22:43:54;92872.47;;;6.78;75.54
41690;BME280;27372;42.658;23.256;2023-04-01T22:46:46;92869.47;;;6.70;75.11
41690;BME280;27372;42.658;23.256;2023-04-01T22:49:22;92876.81;;;6.73;75.45
41690;BME280;27372;42.658;23.256;2023-04-01T22:54:39;92906.38;;;6.61;77.16
41690;BME280;27372;42.658;23.256;2023-04-01T22:57:15;92914.44;;;6.89;73.47
41690;BME280;27372;42.658;23.256;2023-04-01T22:59:54;92914.03;;;6.97;73.32
41690;BME280;27372;42.658;23.256;2023-04-01T23:02:29;92930.91;;;6.89;73.77
41690;BME280;27372;42.658;23.256;2023-04-01T23:04:58;92907.44;;;6.77;74.17
41690;BME280;27372;42.658;23.256;2023-04-01T23:10:29;92908.13;;;6.73;75.13
41690;BME280;27372;42.658;23.256;2023-04-01T23:13:01;92895.09;;;6.73;74.46
41690;BME280;27372;42.658;23.256;2023-04-01T23:15:28;92895.00;;;6.96;71.79
41690;BME280;27372;42.658;23.256;2023-04-01T23:18:05;92915.38;;;6.53;76.94
41690;BME280;27372;42.658;23.256;2023-04-01T23:23:30;92906.84;;;6.87;73.47
41690;BME280;27372;42.658;23.256;2023-04-01T23:29:00;92896.63;;;6.86;71.79
41690;BME280;27372;42.658;23.256;2023-04-01T23:31:40;92921.09;;;6.67;74.72
41690;BME280;27372;42.658;23.256;2023-04-01T23:36:49;92974.97;;;6.74;73.93
41690;BME280;27372;42.658;23.256;2023-04-01T23:41:59;92914.59;;;6.99;71.95
41690;BME280;27372;42.658;23.256;2023-04-01T23:44:29;92942.44;;;6.93;71.77
41690;BME280;27372;42.658;23.256;2023-04-01T23:46:57;92915.44;;;7.17;70.55
41690;BME280;27372;42.658;23.256;2023-04-01T23:49:47;92922.84;;;7.08;70.55
41690;BME280;27372;42.658;23.256;2023-04-01T23:52:23;92941.00;;;7.14;70.47
41690;BME280;27372;42.658;23.256;2023-04-01T23:57:34;92913.53;;;7.12;69.97
